createdAt,value
2017-04-24T00:00:35.819Z,20.75
2017-04-24T00:01:34.811Z,22.75
2017-04-24T00:02:34.281Z,28.50
2017-04-24T00:03:33.325Z,26.50
2017-04-24T00:04:31.952Z,30.02
2017-04-24T00:05:30.999Z,29.95
2017-04-24T00:06:30.027Z,30.50
2017-04-24T00:07:28.646Z,25.90
2017-04-24T00:08:27.644Z,41.68
2017-04-24T00:09:26.243Z,20.83
2017-04-24T00:10:25.227Z,33.62
2017-04-24T00:11:24.215Z,21.27
2017-04-24T00:12:23.268Z,29.43
2017-04-24T00:13:21.862Z,25.15
2017-04-24T00:14:20.884Z,23.48
2017-04-24T00:15:19.431Z,24.17
2017-04-24T00:16:18.424Z,29.10
2017-04-24T00:17:17.451Z,31.63
2017-04-24T00:18:16.425Z,23.18
2017-04-24T00:19:15.046Z,35.52
2017-04-24T00:20:14.019Z,23.17
2017-04-24T00:21:13.144Z,32.87
2017-04-24T00:22:12.150Z,24.87
2017-04-24T00:23:11.133Z,33.55
2017-04-24T00:24:10.167Z,32.10
2017-04-24T00:25:09.134Z,34.03
2017-04-24T00:26:08.289Z,33.37
2017-04-24T00:27:07.351Z,24.93
2017-04-24T00:28:06.485Z,34.95
2017-04-24T00:29:05.512Z,35.12
2017-04-24T00:30:04.176Z,29.43
2017-04-24T00:31:03.315Z,37.45
2017-04-24T00:32:02.330Z,41.55
2017-04-24T00:33:01.461Z,27.07
2017-04-24T00:34:00.527Z,27.93
2017-04-24T00:34:59.244Z,27.07
2017-04-24T00:35:58.291Z,33.63
2017-04-24T00:36:57.309Z,27.53
2017-04-24T00:37:56.292Z,32.78
2017-04-24T00:38:55.348Z,31.22
2017-04-24T00:39:54.384Z,37.93
2017-04-24T00:40:53.371Z,32.38
2017-04-24T00:41:52.324Z,30.62
2017-04-24T00:42:50.971Z,42.58
2017-04-24T00:43:49.985Z,35.13
2017-04-24T00:44:48.960Z,40.27
2017-04-24T00:45:48.056Z,35.75
2017-04-24T00:46:47.008Z,37.10
2017-04-24T00:47:46.023Z,37.95
2017-04-24T00:48:45.569Z,38.57
2017-04-24T00:49:44.591Z,33.42
2017-04-24T00:50:43.549Z,40.77
2017-04-24T00:51:42.567Z,34.22
2017-04-24T00:52:41.267Z,35.75
2017-04-24T00:53:40.276Z,35.05
2017-04-24T00:54:39.284Z,37.03
2017-04-24T00:55:38.268Z,31.02
2017-04-24T00:56:37.298Z,34.13
2017-04-24T00:57:35.875Z,34.50
2017-04-24T00:58:34.466Z,35.52
2017-04-24T00:59:33.583Z,35.00
2017-04-24T01:00:32.628Z,37.63
2017-04-24T01:01:31.251Z,28.95
2017-04-24T01:02:30.203Z,35.85
2017-04-24T01:03:29.220Z,36.82
2017-04-24T01:04:28.135Z,44.55
2017-04-24T01:05:27.178Z,39.57
2017-04-24T01:06:26.211Z,27.17
2017-04-24T01:07:25.235Z,32.78
2017-04-24T01:08:24.231Z,31.35
2017-04-24T01:09:23.256Z,34.48
2017-04-24T01:10:22.310Z,30.27
2017-04-24T01:11:21.292Z,34.52
2017-04-24T01:12:20.283Z,25.38
2017-04-24T01:13:19.227Z,31.65
2017-04-24T01:14:17.910Z,29.52
2017-04-24T01:15:16.543Z,37.12
2017-04-24T01:16:15.488Z,34.53
2017-04-24T01:17:14.432Z,35.75
2017-04-24T01:18:13.442Z,34.63
2017-04-24T01:19:12.470Z,25.28
2017-04-24T01:20:11.083Z,52.15
2017-04-24T01:21:10.070Z,31.53
2017-04-24T01:22:09.014Z,32.08
2017-04-24T01:23:08.033Z,29.35
2017-04-24T01:24:07.156Z,37.53
2017-04-24T01:25:06.135Z,36.23
2017-04-24T01:26:05.087Z,33.03
2017-04-24T01:27:04.067Z,29.87
2017-04-24T01:28:03.071Z,33.58
2017-04-24T01:29:02.042Z,33.20
2017-04-24T01:30:01.033Z,26.62
2017-04-24T01:31:00.067Z,27.78
2017-04-24T01:31:59.032Z,36.47
2017-04-24T01:32:58.203Z,35.05
2017-04-24T01:33:57.663Z,36.28
2017-04-24T01:34:56.652Z,27.53
2017-04-24T01:35:55.657Z,36.55
2017-04-24T01:36:54.680Z,38.30
2017-04-24T01:37:54.035Z,38.18
2017-04-24T01:38:53.086Z,31.38
2017-04-24T01:39:51.658Z,31.57
2017-04-24T01:40:50.679Z,32.20
2017-04-24T01:41:49.758Z,27.33
2017-04-24T01:42:48.723Z,42.48
2017-04-24T01:43:47.732Z,31.45
2017-04-24T01:44:46.811Z,25.83
2017-04-24T01:45:47.116Z,31.73
2017-04-24T01:46:46.121Z,27.55
2017-04-24T01:47:45.112Z,33.72
2017-04-24T01:48:43.690Z,40.08
2017-04-24T01:49:42.753Z,32.35
2017-04-24T01:50:41.694Z,33.67
2017-04-24T01:51:40.329Z,27.62
2017-04-24T01:52:39.384Z,30.12
2017-04-24T01:53:38.368Z,36.12
2017-04-24T01:54:37.335Z,38.90
2017-04-24T01:55:35.831Z,37.22
2017-04-24T01:56:34.915Z,39.43
2017-04-24T01:57:33.930Z,35.30
2017-04-24T01:58:32.884Z,28.60
2017-04-24T01:59:31.846Z,28.53
2017-04-24T02:00:30.987Z,31.17
2017-04-24T02:01:30.408Z,26.97
2017-04-24T02:02:29.428Z,26.22
2017-04-24T02:03:28.346Z,36.67
2017-04-24T02:04:27.384Z,32.70
2017-04-24T02:05:26.643Z,32.10
2017-04-24T02:06:25.251Z,34.73
2017-04-24T02:07:24.818Z,33.67
2017-04-24T02:08:23.843Z,33.03
2017-04-24T02:09:22.821Z,31.75
2017-04-24T02:10:21.760Z,33.77
2017-04-24T02:11:20.849Z,26.38
2017-04-24T02:12:19.827Z,30.28
2017-04-24T02:13:18.817Z,30.72
2017-04-24T02:14:17.847Z,29.00
2017-04-24T02:15:16.778Z,28.17
2017-04-24T02:16:15.729Z,38.18
2017-04-24T02:17:14.701Z,25.40
2017-04-24T02:18:13.727Z,31.38
2017-04-24T02:19:12.708Z,28.93
2017-04-24T02:20:11.742Z,29.95
2017-04-24T02:21:10.363Z,38.08
2017-04-24T02:22:09.332Z,25.28
2017-04-24T02:23:08.352Z,31.57
2017-04-24T02:24:07.325Z,34.08
2017-04-24T02:25:05.915Z,30.82
2017-04-24T02:26:05.620Z,29.40
2017-04-24T02:27:04.605Z,31.60
2017-04-24T02:28:03.646Z,27.97
2017-04-24T02:29:02.267Z,28.43
2017-04-24T02:30:00.855Z,39.70
2017-04-24T02:30:59.795Z,34.05
2017-04-24T02:31:58.851Z,33.07
2017-04-24T02:32:57.810Z,33.30
2017-04-24T02:33:56.811Z,36.27
2017-04-24T02:34:55.800Z,38.05
2017-04-24T02:35:54.730Z,29.52
2017-04-24T02:36:53.747Z,29.63
2017-04-24T02:37:52.750Z,39.10
2017-04-24T02:38:51.752Z,33.98
2017-04-24T02:39:50.691Z,34.77
2017-04-24T02:40:50.050Z,38.80
2017-04-24T02:41:49.031Z,39.93
2017-04-24T02:42:48.020Z,33.62
2017-04-24T02:43:47.034Z,43.10
2017-04-24T02:44:45.999Z,28.20
2017-04-24T02:45:44.535Z,35.40
2017-04-24T02:46:43.526Z,31.92
2017-04-24T02:47:42.591Z,33.67
2017-04-24T02:48:41.585Z,27.33
2017-04-24T02:49:40.917Z,33.25
2017-04-24T02:50:39.907Z,32.57
2017-04-24T02:51:38.871Z,27.62
2017-04-24T02:52:37.865Z,29.78
2017-04-24T02:53:36.847Z,28.53
2017-04-24T02:54:35.839Z,32.25
2017-04-24T02:55:34.781Z,26.12
2017-04-24T02:56:33.795Z,37.22
2017-04-24T02:57:33.455Z,32.95
2017-04-24T02:58:32.445Z,34.37
2017-04-24T02:59:31.782Z,31.90
2017-04-24T03:00:30.775Z,30.23
2017-04-24T03:01:29.763Z,32.43
2017-04-24T03:02:28.695Z,31.70
2017-04-24T03:03:28.093Z,36.85
2017-04-24T03:04:27.213Z,33.67
2017-04-24T03:05:26.175Z,28.98
2017-04-24T03:06:25.247Z,33.25
2017-04-24T03:07:24.769Z,36.28
2017-04-24T03:08:23.711Z,26.48
2017-04-24T03:09:23.068Z,38.28
2017-04-24T03:10:22.120Z,30.62
2017-04-24T03:11:21.167Z,34.85
2017-04-24T03:12:20.139Z,32.07
2017-04-24T03:13:18.711Z,28.15
2017-04-24T03:14:17.716Z,23.12
2017-04-24T03:15:16.678Z,30.70
2017-04-24T03:16:15.684Z,35.78
2017-04-24T03:17:14.688Z,42.05
2017-04-24T03:18:13.659Z,25.30
2017-04-24T03:19:12.247Z,36.08
2017-04-24T03:20:11.222Z,30.48
2017-04-24T03:21:10.215Z,22.60
2017-04-24T03:22:08.816Z,24.25
2017-04-24T03:23:07.799Z,23.70
2017-04-24T03:24:06.843Z,27.62
2017-04-24T03:25:05.442Z,31.42
2017-04-24T03:26:04.459Z,29.15
2017-04-24T03:27:03.435Z,26.10
2017-04-24T03:28:02.406Z,28.67
2017-04-24T03:29:01.388Z,25.32
2017-04-24T03:30:00.355Z,31.40
2017-04-24T03:30:59.308Z,35.27
2017-04-24T03:31:57.816Z,27.42
2017-04-24T03:32:56.843Z,37.75
2017-04-24T03:33:55.847Z,29.90
2017-04-24T03:34:55.038Z,27.57
2017-04-24T03:35:54.452Z,35.75
2017-04-24T03:36:53.435Z,24.35
2017-04-24T03:37:52.411Z,33.75
2017-04-24T03:38:51.367Z,27.42
2017-04-24T03:39:50.298Z,27.85
2017-04-24T03:40:49.258Z,32.75
2017-04-24T03:41:48.256Z,36.78
2017-04-24T03:42:46.884Z,22.70
2017-04-24T03:43:45.793Z,29.37
2017-04-24T03:44:44.779Z,27.78
2017-04-24T03:45:43.751Z,27.03
2017-04-24T03:46:42.693Z,31.30
2017-04-24T03:47:42.089Z,29.27
2017-04-24T03:48:41.184Z,37.98
2017-04-24T03:49:40.107Z,33.08
2017-04-24T03:50:39.095Z,27.82
2017-04-24T03:51:37.998Z,34.73
2017-04-24T03:52:36.560Z,26.95
2017-04-24T03:53:35.531Z,32.33
2017-04-24T03:54:34.515Z,28.23
2017-04-24T03:55:33.107Z,33.58
2017-04-24T03:56:32.047Z,31.33
2017-04-24T03:57:31.008Z,34.10
2017-04-24T03:58:29.566Z,32.42
2017-04-24T03:59:28.555Z,27.88
2017-04-24T04:00:28.026Z,30.98
2017-04-24T04:01:26.599Z,46.68
2017-04-24T04:02:25.147Z,46.57
2017-04-24T04:03:24.103Z,40.40
2017-04-24T04:04:22.626Z,31.45
2017-04-24T04:05:21.615Z,37.95
2017-04-24T04:06:20.659Z,29.60
2017-04-24T04:07:19.209Z,33.68
2017-04-24T04:08:18.207Z,28.75
2017-04-24T04:09:17.200Z,33.68
2017-04-24T04:10:15.763Z,29.88
2017-04-24T04:11:15.067Z,29.55
2017-04-24T04:12:14.244Z,29.93
2017-04-24T04:13:13.655Z,28.47
2017-04-24T04:14:12.307Z,37.15
2017-04-24T04:15:11.307Z,30.13
2017-04-24T04:16:09.939Z,27.80
2017-04-24T04:17:11.256Z,27.72
2017-04-24T04:18:10.362Z,43.03
2017-04-24T04:19:08.974Z,41.70
2017-04-24T04:20:07.679Z,38.68
2017-04-24T04:21:06.685Z,42.85
2017-04-24T04:22:05.668Z,32.97
2017-04-24T04:23:04.777Z,45.03
2017-04-24T04:24:03.832Z,32.68
2017-04-24T04:25:02.542Z,35.68
2017-04-24T04:26:01.490Z,32.42
2017-04-24T04:27:00.451Z,27.30
2017-04-24T04:27:59.835Z,31.70
2017-04-24T04:28:58.852Z,29.80
2017-04-24T04:29:57.740Z,28.43
2017-04-24T04:30:57.127Z,43.45
2017-04-24T04:31:56.204Z,37.32
2017-04-24T04:32:55.332Z,33.40
2017-04-24T04:33:53.989Z,32.13
2017-04-24T04:34:52.611Z,41.57
2017-04-24T04:35:52.015Z,37.07
2017-04-24T04:36:50.707Z,31.55
2017-04-24T04:37:49.789Z,38.28
2017-04-24T04:38:48.398Z,36.87
2017-04-24T04:39:47.466Z,38.93
2017-04-24T04:40:51.379Z,27.93
2017-04-24T04:41:50.132Z,38.48
2017-04-24T04:42:49.159Z,45.00
2017-04-24T04:43:48.180Z,29.80
2017-04-24T04:44:46.832Z,37.42
2017-04-24T04:45:45.777Z,43.35
2017-04-24T04:46:44.825Z,23.92
2017-04-24T04:47:44.238Z,39.82
2017-04-24T04:48:43.530Z,40.33
2017-04-24T04:49:42.516Z,35.25
2017-04-24T04:50:41.634Z,33.13
2017-04-24T04:51:40.730Z,34.62
2017-04-24T04:52:39.756Z,49.63
2017-04-24T04:53:38.381Z,37.83
2017-04-24T04:54:36.996Z,32.03
2017-04-24T04:55:36.062Z,36.15
2017-04-24T04:56:35.066Z,36.65
2017-04-24T04:57:33.743Z,32.13
2017-04-24T04:58:32.441Z,31.88
2017-04-24T04:59:31.557Z,32.58
2017-04-24T05:00:30.619Z,40.37
2017-04-24T05:01:29.712Z,34.12
2017-04-24T05:02:28.730Z,33.95
2017-04-24T05:03:27.459Z,34.78
2017-04-24T05:04:26.541Z,26.25
2017-04-24T05:05:25.521Z,35.30
2017-04-24T05:06:24.053Z,43.75
2017-04-24T05:07:22.647Z,36.57
2017-04-24T05:08:21.291Z,32.67
2017-04-24T05:09:19.910Z,29.02
2017-04-24T05:10:18.920Z,25.72
2017-04-24T05:11:17.475Z,41.18
2017-04-24T05:12:16.396Z,33.90
2017-04-24T05:13:15.408Z,40.17
2017-04-24T05:14:14.367Z,36.52
2017-04-24T05:15:13.390Z,33.17
2017-04-24T05:16:11.994Z,35.45
2017-04-24T05:17:10.996Z,35.43
2017-04-24T05:18:10.003Z,30.97
2017-04-24T05:19:09.032Z,47.63
2017-04-24T05:20:08.056Z,32.00
2017-04-24T05:21:07.068Z,31.42
2017-04-24T05:22:06.080Z,32.83
2017-04-24T05:23:05.096Z,27.05
2017-04-24T05:24:04.069Z,31.30
2017-04-24T05:25:03.015Z,35.08
2017-04-24T05:26:02.105Z,28.38
2017-04-24T05:27:01.485Z,37.30
2017-04-24T05:28:00.491Z,37.12
2017-04-24T05:28:59.499Z,26.52
2017-04-24T05:29:58.519Z,31.55
2017-04-24T05:30:57.591Z,32.05
2017-04-24T05:31:56.661Z,41.10
2017-04-24T05:32:56.363Z,33.42
2017-04-24T05:33:55.367Z,39.88
2017-04-24T05:34:54.347Z,45.50
2017-04-24T05:35:53.291Z,28.00
2017-04-24T05:36:52.252Z,27.37
2017-04-24T05:37:51.257Z,26.62
2017-04-24T05:38:50.250Z,39.52
2017-04-24T05:39:49.211Z,42.53
2017-04-24T05:40:48.251Z,39.43
2017-04-24T05:41:47.293Z,35.38
2017-04-24T05:42:45.855Z,43.72
2017-04-24T05:43:44.883Z,61.90
2017-04-24T05:44:43.936Z,36.13
2017-04-24T05:45:42.877Z,30.98
2017-04-24T05:46:42.255Z,43.13
2017-04-24T05:47:41.198Z,27.12
2017-04-24T05:48:39.872Z,34.20
2017-04-24T05:49:38.838Z,38.52
2017-04-24T05:50:37.906Z,32.82
2017-04-24T05:51:36.966Z,29.33
2017-04-24T05:52:35.947Z,28.92
2017-04-24T05:53:34.911Z,33.08
2017-04-24T05:54:33.418Z,40.57
2017-04-24T05:55:32.471Z,41.67
2017-04-24T05:56:31.467Z,56.72
2017-04-24T05:57:30.469Z,29.98
2017-04-24T05:58:29.483Z,32.68
2017-04-24T05:59:28.497Z,30.75
2017-04-24T06:00:27.547Z,34.57
2017-04-24T06:01:26.672Z,44.02
2017-04-24T06:02:25.872Z,37.95
2017-04-24T06:03:24.855Z,49.28
2017-04-24T06:04:23.829Z,35.23
2017-04-24T06:05:22.871Z,30.05
2017-04-24T06:06:21.855Z,38.32
2017-04-24T06:07:20.867Z,53.32
2017-04-24T06:08:19.852Z,37.53
2017-04-24T06:09:18.851Z,37.35
2017-04-24T06:10:17.867Z,36.43
2017-04-24T06:11:16.891Z,33.37
2017-04-24T06:12:16.009Z,36.33
2017-04-24T06:13:14.643Z,35.47
2017-04-24T06:14:13.968Z,29.90
2017-04-24T06:15:12.462Z,30.17
2017-04-24T06:16:11.827Z,35.03
2017-04-24T06:17:10.861Z,29.57
2017-04-24T06:18:09.831Z,35.30
2017-04-24T06:19:08.827Z,36.58
2017-04-24T06:20:07.807Z,33.03
2017-04-24T06:21:06.770Z,36.33
2017-04-24T06:22:05.731Z,38.20
2017-04-24T06:23:04.687Z,28.67
2017-04-24T06:24:03.644Z,30.73
2017-04-24T06:25:02.671Z,33.37
2017-04-24T06:26:01.615Z,29.35
2017-04-24T06:27:01.021Z,36.12
2017-04-24T06:28:00.759Z,38.58
2017-04-24T06:28:59.767Z,30.55
2017-04-24T06:29:58.735Z,30.48
2017-04-24T06:30:57.739Z,35.23
2017-04-24T06:31:56.735Z,33.57
2017-04-24T06:32:55.721Z,40.25
2017-04-24T06:33:54.692Z,36.87
2017-04-24T06:34:53.675Z,34.38
2017-04-24T06:35:52.691Z,32.70
2017-04-24T06:36:51.723Z,31.37
2017-04-24T06:37:50.712Z,34.75
2017-04-24T06:38:49.727Z,33.72
2017-04-24T06:39:49.136Z,39.22
2017-04-24T06:40:48.104Z,45.12
2017-04-24T06:41:47.096Z,33.85
2017-04-24T06:42:46.435Z,33.00
2017-04-24T06:43:45.407Z,33.88
2017-04-24T06:44:44.363Z,31.85
2017-04-24T06:45:43.695Z,30.48
2017-04-24T06:46:42.674Z,34.07
2017-04-24T06:47:41.647Z,32.60
2017-04-24T06:48:40.260Z,26.27
2017-04-24T06:49:39.243Z,32.42
2017-04-24T06:50:38.263Z,28.55
2017-04-24T06:51:37.307Z,35.02
2017-04-24T06:52:36.294Z,30.77
2017-04-24T06:53:34.851Z,30.78
2017-04-24T06:54:33.832Z,41.45
2017-04-24T06:55:32.786Z,37.15
2017-04-24T06:56:31.319Z,29.25
2017-04-24T06:57:30.299Z,34.23
2017-04-24T06:58:29.276Z,30.93
2017-04-24T06:59:28.260Z,32.35
2017-04-24T07:00:27.278Z,42.87
2017-04-24T07:01:26.327Z,31.78
2017-04-24T07:02:25.335Z,29.53
2017-04-24T07:03:24.328Z,31.37
2017-04-24T07:04:24.094Z,28.12
2017-04-24T07:05:23.030Z,28.08
2017-04-24T07:06:21.991Z,37.42
2017-04-24T07:07:21.001Z,27.75
2017-04-24T07:08:20.035Z,52.83
2017-04-24T07:09:19.055Z,31.27
2017-04-24T07:10:18.044Z,32.27
2017-04-24T07:11:16.985Z,27.98
2017-04-24T07:12:15.549Z,29.85
2017-04-24T07:13:14.476Z,33.08
2017-04-24T07:14:13.470Z,28.82
2017-04-24T07:15:12.551Z,30.60
2017-04-24T07:16:12.234Z,32.70
2017-04-24T07:17:11.243Z,38.07
2017-04-24T07:18:10.212Z,27.68
2017-04-24T07:19:09.260Z,30.95
2017-04-24T07:20:08.182Z,32.85
2017-04-24T07:21:07.196Z,32.85
2017-04-24T07:22:06.191Z,38.68
2017-04-24T07:23:05.154Z,40.60
2017-04-24T07:24:04.182Z,28.27
2017-04-24T07:25:03.252Z,32.08
2017-04-24T07:26:02.182Z,30.33
2017-04-24T07:27:01.144Z,40.80
2017-04-24T07:28:00.488Z,41.03
2017-04-24T07:28:59.502Z,33.90
2017-04-24T07:29:58.510Z,29.82
2017-04-24T07:30:57.502Z,28.98
2017-04-24T07:31:56.579Z,29.80
2017-04-24T07:32:55.595Z,24.92
2017-04-24T07:33:54.579Z,27.85
2017-04-24T07:34:57.297Z,39.15
2017-04-24T07:35:56.290Z,33.02
2017-04-24T07:36:55.256Z,30.35
2017-04-24T07:37:54.227Z,36.93
2017-04-24T07:38:53.180Z,40.37
2017-04-24T07:39:52.179Z,32.72
2017-04-24T07:40:51.202Z,26.15
2017-04-24T07:41:50.194Z,26.63
2017-04-24T07:42:49.200Z,26.65
2017-04-24T07:43:48.143Z,37.12
2017-04-24T07:44:46.850Z,30.92
2017-04-24T07:45:46.191Z,31.07
2017-04-24T07:46:45.191Z,25.67
2017-04-24T07:47:44.182Z,23.88
2017-04-24T07:48:43.201Z,24.70
2017-04-24T07:49:41.813Z,24.10
2017-04-24T07:50:40.981Z,20.70
2017-04-24T07:51:40.007Z,34.40
2017-04-24T07:52:39.021Z,22.07
2017-04-24T07:53:37.624Z,21.32
2017-04-24T07:54:36.582Z,27.58
2017-04-24T07:55:35.624Z,30.75
2017-04-24T07:56:34.644Z,29.80
2017-04-24T07:57:34.377Z,21.70
2017-04-24T07:58:33.396Z,22.28
2017-04-24T07:59:32.794Z,31.70
2017-04-24T08:00:31.783Z,28.52
2017-04-24T08:01:31.428Z,33.88
2017-04-24T08:02:29.983Z,28.33
2017-04-24T08:03:28.959Z,22.10
2017-04-24T08:04:28.005Z,22.85
2017-04-24T08:05:27.140Z,32.77
2017-04-24T08:06:26.164Z,20.90
2017-04-24T08:07:25.136Z,24.52
2017-04-24T08:08:24.175Z,22.47
2017-04-24T08:09:23.139Z,29.80
2017-04-24T08:10:22.185Z,25.48
2017-04-24T08:11:21.221Z,23.12
2017-04-24T08:12:20.206Z,30.08
2017-04-24T08:13:18.796Z,25.78
2017-04-24T08:14:17.775Z,21.40
2017-04-24T08:15:17.144Z,24.90
2017-04-24T08:16:16.141Z,20.47
2017-04-24T08:17:15.172Z,33.62
2017-04-24T08:18:14.179Z,23.63
2017-04-24T08:19:13.153Z,21.28
2017-04-24T08:20:12.143Z,20.35
2017-04-24T08:21:11.095Z,28.70
2017-04-24T08:22:10.091Z,19.68
2017-04-24T08:23:09.124Z,17.35
2017-04-24T08:24:07.695Z,24.13
2017-04-24T08:25:06.675Z,23.68
2017-04-24T08:26:05.651Z,25.30
2017-04-24T08:27:04.619Z,27.65
2017-04-24T08:28:03.632Z,44.50
2017-04-24T08:29:02.228Z,26.10
2017-04-24T08:30:00.823Z,28.05
2017-04-24T08:30:59.857Z,25.72
2017-04-24T08:31:59.247Z,24.07
2017-04-24T08:32:58.216Z,19.50
2017-04-24T08:33:57.228Z,26.87
2017-04-24T08:34:56.375Z,19.58
2017-04-24T08:35:55.372Z,21.08
2017-04-24T08:36:54.358Z,31.63
2017-04-24T08:37:53.367Z,18.43
2017-04-24T08:38:52.339Z,17.35
2017-04-24T08:39:51.359Z,22.48
2017-04-24T08:40:50.419Z,24.57
2017-04-24T08:41:49.412Z,38.48
2017-04-24T08:42:48.366Z,21.07
2017-04-24T08:43:47.107Z,29.28
2017-04-24T08:44:46.047Z,19.00
2017-04-24T08:45:45.042Z,19.10
2017-04-24T08:46:44.042Z,17.32
2017-04-24T08:47:43.274Z,14.25
2017-04-24T08:48:42.215Z,21.22
2017-04-24T08:49:40.861Z,15.52
2017-04-24T08:50:39.783Z,21.50
2017-04-24T08:51:38.344Z,20.87
2017-04-24T08:52:37.351Z,24.12
2017-04-24T08:53:36.291Z,27.13
2017-04-24T08:54:35.656Z,17.97
2017-04-24T08:55:35.099Z,19.88
2017-04-24T08:56:34.005Z,26.72
2017-04-24T08:57:32.843Z,22.63
2017-04-24T08:58:31.957Z,21.63
2017-04-24T08:59:30.915Z,22.13
2017-04-24T09:00:29.895Z,20.87
2017-04-24T09:01:29.269Z,19.13
2017-04-24T09:02:28.236Z,20.13
2017-04-24T09:03:27.253Z,20.47
2017-04-24T09:04:26.635Z,25.55
2017-04-24T09:05:25.595Z,22.38
2017-04-24T09:06:24.585Z,16.28
2017-04-24T09:07:23.220Z,24.67
2017-04-24T09:08:22.200Z,21.45
2017-04-24T09:09:21.199Z,26.32
2017-04-24T09:10:20.206Z,20.92
2017-04-24T09:11:19.156Z,14.20
2017-04-24T09:12:18.148Z,16.33
2017-04-24T09:13:17.205Z,26.07
2017-04-24T09:14:16.588Z,15.97
2017-04-24T09:15:15.571Z,19.73
2017-04-24T09:16:14.554Z,19.30
2017-04-24T09:17:13.571Z,16.77
2017-04-24T09:18:12.194Z,26.78
2017-04-24T09:19:11.241Z,20.80
2017-04-24T09:20:09.876Z,24.18
2017-04-24T09:21:09.216Z,35.18
2017-04-24T09:22:08.204Z,23.27
2017-04-24T09:23:06.802Z,18.83
2017-04-24T09:24:05.803Z,26.18
2017-04-24T09:25:04.734Z,18.08
2017-04-24T09:26:03.335Z,22.08
2017-04-24T09:27:02.314Z,16.50
2017-04-24T09:28:01.696Z,19.12
2017-04-24T09:29:00.292Z,16.73
2017-04-24T09:29:59.363Z,19.23
2017-04-24T09:30:58.305Z,21.05
2017-04-24T09:31:57.304Z,16.88
2017-04-24T09:32:56.312Z,29.83
2017-04-24T09:33:54.895Z,20.32
2017-04-24T09:34:53.843Z,23.22
2017-04-24T09:35:52.823Z,24.57
2017-04-24T09:36:51.815Z,18.77
2017-04-24T09:37:50.773Z,24.95
2017-04-24T09:38:49.768Z,19.38
2017-04-24T09:39:48.780Z,21.35
2017-04-24T09:40:47.737Z,16.20
2017-04-24T09:41:46.340Z,14.18
2017-04-24T09:42:45.280Z,20.53
2017-04-24T09:43:44.319Z,19.67
2017-04-24T09:44:43.388Z,24.82
2017-04-24T09:45:42.391Z,24.50
2017-04-24T09:46:40.998Z,32.17
2017-04-24T09:47:39.951Z,28.68
2017-04-24T09:48:38.983Z,22.17
2017-04-24T09:49:38.000Z,20.02
2017-04-24T09:50:36.947Z,19.00
2017-04-24T09:51:35.959Z,20.27
2017-04-24T09:52:35.018Z,19.97
2017-04-24T09:53:34.019Z,19.73
2017-04-24T09:54:33.056Z,26.32
2017-04-24T09:55:32.471Z,20.45
2017-04-24T09:56:31.097Z,15.83
2017-04-24T09:57:30.081Z,19.87
2017-04-24T09:58:29.477Z,18.03
2017-04-24T09:59:28.483Z,22.52
2017-04-24T10:00:27.169Z,19.02
2017-04-24T10:01:26.184Z,21.93
2017-04-24T10:02:25.204Z,15.18
2017-04-24T10:03:24.191Z,26.58
2017-04-24T10:04:23.545Z,17.75
2017-04-24T10:05:22.588Z,17.50
2017-04-24T10:06:21.679Z,21.50
2017-04-24T10:07:20.671Z,21.22
2017-04-24T10:08:19.665Z,21.52
2017-04-24T10:09:18.656Z,17.70
2017-04-24T10:10:17.578Z,19.57
2017-04-24T10:11:16.973Z,22.35
2017-04-24T10:12:15.954Z,20.25
2017-04-24T10:13:15.038Z,20.10
2017-04-24T10:14:13.608Z,16.62
2017-04-24T10:15:13.004Z,19.67
2017-04-24T10:16:12.399Z,17.55
2017-04-24T10:17:11.440Z,18.13
2017-04-24T10:18:10.132Z,19.93
2017-04-24T10:19:09.141Z,18.67
2017-04-24T10:20:08.123Z,17.97
2017-04-24T10:21:07.136Z,20.92
2017-04-24T10:22:06.087Z,33.18
2017-04-24T10:23:05.183Z,17.42
2017-04-24T10:24:04.214Z,12.28
2017-04-24T10:25:03.243Z,18.20
2017-04-24T10:26:02.199Z,18.25
2017-04-24T10:27:01.267Z,23.50
2017-04-24T10:28:00.295Z,19.50
2017-04-24T10:28:59.391Z,30.18
2017-04-24T10:29:58.019Z,17.85
2017-04-24T10:30:57.071Z,19.20
2017-04-24T10:31:56.104Z,20.62
2017-04-24T10:32:55.072Z,24.77
2017-04-24T10:33:54.059Z,23.23
2017-04-24T10:34:52.604Z,20.03
2017-04-24T10:35:51.654Z,18.03
2017-04-24T10:36:50.274Z,22.98
2017-04-24T10:37:49.746Z,15.88
2017-04-24T10:38:48.807Z,18.77
2017-04-24T10:39:47.836Z,15.65
2017-04-24T10:40:46.840Z,18.82
2017-04-24T10:41:45.912Z,15.78
2017-04-24T10:42:44.519Z,17.25
2017-04-24T10:43:43.550Z,18.77
2017-04-24T10:44:42.610Z,19.12
2017-04-24T10:45:41.566Z,17.87
2017-04-24T10:46:40.608Z,21.62
2017-04-24T10:47:39.629Z,22.63
2017-04-24T10:48:38.853Z,19.30
2017-04-24T10:49:37.861Z,15.55
2017-04-24T10:50:36.943Z,20.10
2017-04-24T10:51:35.924Z,17.62
2017-04-24T10:52:35.023Z,14.78
2017-04-24T10:53:34.409Z,23.22
2017-04-24T10:54:33.525Z,26.83
2017-04-24T10:55:32.533Z,13.35
2017-04-24T10:56:31.708Z,18.05
2017-04-24T10:57:31.252Z,17.73
2017-04-24T10:58:30.281Z,15.20
2017-04-24T10:59:28.856Z,18.00
2017-04-24T11:00:27.497Z,14.68
2017-04-24T11:01:26.520Z,24.95
2017-04-24T11:02:25.514Z,18.87
2017-04-24T11:03:24.108Z,19.68
2017-04-24T11:04:23.187Z,14.80
2017-04-24T11:05:22.154Z,16.58
2017-04-24T11:06:21.159Z,17.75
2017-04-24T11:07:20.159Z,16.37
2017-04-24T11:08:19.292Z,23.58
2017-04-24T11:09:18.389Z,17.22
2017-04-24T11:10:17.375Z,22.45
2017-04-24T11:11:16.402Z,21.12
2017-04-24T11:12:14.959Z,30.80
2017-04-24T11:13:13.547Z,18.70
2017-04-24T11:14:12.939Z,20.92
2017-04-24T11:15:11.945Z,17.93
2017-04-24T11:16:10.979Z,20.28
2017-04-24T11:17:10.053Z,14.58
2017-04-24T11:18:09.036Z,15.18
2017-04-24T11:19:07.651Z,14.68
2017-04-24T11:20:06.685Z,27.13
2017-04-24T11:21:05.656Z,18.85
2017-04-24T11:22:04.659Z,18.55
2017-04-24T11:23:03.650Z,24.03
2017-04-24T11:24:02.643Z,24.80
2017-04-24T11:25:01.259Z,14.62
2017-04-24T11:26:00.216Z,20.90
2017-04-24T11:26:59.260Z,20.00
2017-04-24T11:27:58.203Z,27.23
2017-04-24T11:28:57.207Z,22.82
2017-04-24T11:29:57.712Z,23.83
2017-04-24T11:30:56.487Z,19.78
2017-04-24T11:31:55.079Z,23.42
2017-04-24T11:32:54.475Z,21.20
2017-04-24T11:33:53.436Z,25.92
2017-04-24T11:34:52.415Z,27.58
2017-04-24T11:35:51.527Z,21.05
2017-04-24T11:36:50.545Z,19.92
2017-04-24T11:37:49.546Z,20.10
2017-04-24T11:38:48.572Z,17.43
2017-04-24T11:39:47.537Z,22.72
2017-04-24T11:40:46.988Z,20.58
2017-04-24T11:41:45.979Z,23.12
2017-04-24T11:42:44.959Z,21.65
2017-04-24T11:43:44.036Z,20.15
2017-04-24T11:44:42.999Z,21.97
2017-04-24T11:45:41.997Z,26.78
2017-04-24T11:46:40.982Z,23.97
2017-04-24T11:47:39.951Z,25.48
2017-04-24T11:48:38.620Z,17.38
2017-04-24T11:49:37.649Z,19.05
2017-04-24T11:50:36.601Z,20.13
2017-04-24T11:51:35.619Z,21.68
2017-04-24T11:52:34.652Z,24.48
2017-04-24T11:53:33.663Z,25.87
2017-04-24T11:54:32.663Z,18.50
2017-04-24T11:55:32.424Z,17.47
2017-04-24T11:56:31.439Z,21.25
2017-04-24T11:57:30.417Z,27.37
2017-04-24T11:58:29.063Z,19.55
2017-04-24T11:59:28.051Z,22.80
2017-04-24T12:00:27.052Z,22.80
2017-04-24T12:01:26.088Z,21.58
2017-04-24T12:02:25.111Z,28.08
2017-04-24T12:03:24.114Z,17.82
2017-04-24T12:04:23.147Z,16.22
2017-04-24T12:05:22.195Z,24.23
2017-04-24T12:06:21.157Z,21.70
2017-04-24T12:07:20.114Z,23.35
2017-04-24T12:08:18.804Z,22.57
2017-04-24T12:09:17.801Z,23.47
2017-04-24T12:10:16.807Z,18.03
2017-04-24T12:11:15.833Z,28.88
2017-04-24T12:12:14.772Z,21.22
2017-04-24T12:13:13.823Z,19.60
2017-04-24T12:14:13.183Z,24.68
2017-04-24T12:15:11.779Z,24.07
2017-04-24T12:16:10.766Z,28.62
2017-04-24T12:17:09.754Z,20.57
2017-04-24T12:18:08.723Z,19.55
2017-04-24T12:19:07.719Z,22.72
2017-04-24T12:20:06.818Z,23.50
2017-04-24T12:21:05.747Z,24.03
2017-04-24T12:22:04.751Z,21.02
2017-04-24T12:23:03.861Z,26.33
2017-04-24T12:24:02.796Z,25.53
2017-04-24T12:25:01.814Z,18.27
2017-04-24T12:26:00.916Z,21.55
2017-04-24T12:27:00.248Z,22.43
2017-04-24T12:27:59.271Z,17.20
2017-04-24T12:28:58.215Z,23.78
2017-04-24T12:29:57.184Z,20.33
2017-04-24T12:30:56.186Z,25.88
2017-04-24T12:31:59.406Z,23.38
2017-04-24T12:32:58.131Z,31.55
2017-04-24T12:33:57.138Z,20.45
2017-04-24T12:34:56.128Z,24.88
2017-04-24T12:35:55.162Z,40.73
2017-04-24T12:36:54.164Z,24.90
2017-04-24T12:37:53.245Z,21.85
2017-04-24T12:38:52.275Z,17.17
2017-04-24T12:39:51.362Z,18.15